Time;durP1;ratioP1;P1;durP2;ratioP2;P2;SDS_P1;SDS_P2;PMS_P1;PMS_P2;Temp;Humidity;BMP_temperature;BMP_pressure;BME280_temperature;BME280_humidity;BME280_pressure;Samples;Min_cycle;Max_cycle;Signal;HPM_P1;HPM_P2
2024/04/14 00:00:45;;;;;;;3.90;2.40;;;;;;;;;;5294423;27;20718;-81
2024/04/14 00:03:58;;;;;;;6.43;2.50;;;;;;;;;;5315151;27;20258;-81
2024/04/14 00:07:02;;;;;;;4.80;2.60;;;;;;;;;;5294419;27;20611;-82
2024/04/14 00:10:07;;;;;;;2.87;2.13;;;;;;;;;;5313825;27;20218;-82
2024/04/14 00:13:12;;;;;;;5.17;2.90;;;;;;;;;;5294603;27;20272;-82
2024/04/14 00:16:17;;;;;;;8.43;2.60;;;;;;;;;;5294584;27;20864;-82
2024/04/14 00:19:22;;;;;;;5.23;2.97;;;;;;;;;;5294330;27;20769;-81
2024/04/14 00:22:32;;;;;;;4.67;2.40;;;;;;;;;;5295611;27;20225;-83
2024/04/14 00:25:37;;;;;;;4.43;2.17;;;;;;;;;;5314795;27;20226;-82
2024/04/14 00:33:15;;;;;;;5.43;2.57;;;;;;;;;;5314024;27;20226;-82
2024/04/14 00:36:20;;;;;;;7.10;2.17;;;;;;;;;;5297574;27;20724;-81
2024/04/14 00:39:24;;;;;;;8.47;2.00;;;;;;;;;;5296958;27;20224;-82
2024/04/14 00:42:28;;;;;;;3.20;2.17;;;;;;;;;;5296712;27;20265;-81
2024/04/14 00:45:33;;;;;;;3.57;2.10;;;;;;;;;;5317058;27;20626;-82
2024/04/14 00:48:37;;;;;;;6.57;2.90;;;;;;;;;;5317841;27;20259;-82
2024/04/14 00:51:41;;;;;;;5.27;2.37;;;;;;;;;;5317533;27;20214;-82
2024/04/14 00:54:46;;;;;;;4.93;2.40;;;;;;;;;;5316974;27;20272;-82
2024/04/14 00:57:51;;;;;;;6.33;2.17;;;;;;;;;;5297441;27;20263;-82
2024/04/14 01:00:56;;;;;;;3.90;3.27;;;;;;;;;;5318004;27;20273;-81
2024/04/14 01:04:00;;;;;;;6.07;2.20;;;;;;;;;;5296833;27;20222;-81
2024/04/14 01:07:05;;;;;;;5.53;2.27;;;;;;;;;;5297111;27;20766;-82
2024/04/14 01:10:09;;;;;;;6.63;2.47;;;;;;;;;;5316239;27;20618;-82
2024/04/14 01:13:14;;;;;;;4.63;2.57;;;;;;;;;;5296481;27;20214;-81
2024/04/14 01:16:19;;;;;;;3.23;2.23;;;;;;;;;;5276866;27;20272;-81
2024/04/14 01:19:23;;;;;;;5.50;2.50;;;;;;;;;;5296139;27;20782;-82
2024/04/14 01:22:27;;;;;;;4.53;2.30;;;;;;;;;;5296242;27;20281;-82
2024/04/14 01:25:32;;;;;;;5.70;2.30;;;;;;;;;;5316332;27;20225;-81
2024/04/14 01:28:36;;;;;;;4.70;2.30;;;;;;;;;;5295793;27;20293;-81
2024/04/14 01:31:40;;;;;;;3.97;2.30;;;;;;;;;;5315273;27;20276;-81
2024/04/14 01:34:44;;;;;;;5.83;2.60;;;;;;;;;;5296788;27;20714;-82
2024/04/14 01:37:49;;;;;;;5.43;2.27;;;;;;;;;;5317078;27;20258;-82
2024/04/14 01:40:53;;;;;;;4.10;2.23;;;;;;;;;;5295726;27;20272;-81
2024/04/14 01:43:58;;;;;;;3.40;2.40;;;;;;;;;;5315811;27;20225;-81
2024/04/14 01:47:03;;;;;;;5.93;2.37;;;;;;;;;;5295572;27;20285;-81
2024/04/14 01:50:08;;;;;;;3.53;2.20;;;;;;;;;;5296108;27;20233;-82
2024/04/14 01:53:12;;;;;;;4.00;2.30;;;;;;;;;;5315119;27;20225;-81
2024/04/14 01:56:17;;;;;;;4.97;2.10;;;;;;;;;;5315282;27;20376;-82
2024/04/14 01:59:22;;;;;;;7.33;2.70;;;;;;;;;;5315309;27;20225;-82
2024/04/14 02:02:27;;;;;;;6.40;2.50;;;;;;;;;;5315315;27;20261;-81
2024/04/14 02:05:32;;;;;;;7.17;2.80;;;;;;;;;;5314921;27;20229;-81
2024/04/14 02:08:39;;;;;;;3.70;2.57;;;;;;;;;;5296247;27;20292;-82
2024/04/14 02:11:43;;;;;;;9.67;2.83;;;;;;;;;;5314502;27;20218;-81
2024/04/14 02:14:48;;;;;;;5.00;2.60;;;;;;;;;;5314665;27;20576;-81
2024/04/14 02:17:52;;;;;;;3.80;2.30;;;;;;;;;;5315718;27;20273;-81
2024/04/14 02:20:57;;;;;;;4.93;2.23;;;;;;;;;;5275590;27;20225;-82
2024/04/14 02:24:01;;;;;;;4.43;2.30;;;;;;;;;;5295244;27;20225;-82
2024/04/14 02:27:05;;;;;;;5.07;2.53;;;;;;;;;;5295084;27;20265;-81
2024/04/14 02:30:10;;;;;;;4.30;2.33;;;;;;;;;;5294903;27;20225;-82
2024/04/14 02:33:14;;;;;;;4.60;2.60;;;;;;;;;;5314626;27;20233;-81
2024/04/14 02:36:20;;;;;;;6.37;2.70;;;;;;;;;;5294728;27;20226;-81
2024/04/14 02:39:24;;;;;;;8.30;3.00;;;;;;;;;;5295123;27;20210;-80
2024/04/14 02:42:34;;;;;;;5.17;2.50;;;;;;;;;;5315836;27;20269;-82
2024/04/14 02:45:40;;;;;;;8.17;2.90;;;;;;;;;;5315759;27;20611;-82
2024/04/14 02:48:48;;;;;;;4.27;2.80;;;;;;;;;;5294844;27;20358;-81
2024/04/14 02:51:52;;;;;;;5.30;2.87;;;;;;;;;;5274835;27;20340;-82
2024/04/14 02:54:56;;;;;;;8.90;3.13;;;;;;;;;;5294429;27;20280;-82
2024/04/14 02:58:01;;;;;;;10.33;3.03;;;;;;;;;;5314639;27;20276;-81
2024/04/14 03:01:06;;;;;;;5.77;3.20;;;;;;;;;;5294583;27;20264;-82
2024/04/14 03:04:10;;;;;;;6.30;3.17;;;;;;;;;;5315784;27;20587;-81
2024/04/14 03:07:15;;;;;;;5.40;2.70;;;;;;;;;;5314412;27;20280;-82
2024/04/14 03:10:20;;;;;;;6.97;3.00;;;;;;;;;;5313977;27;20766;-81
2024/04/14 03:13:25;;;;;;;5.20;3.47;;;;;;;;;;5294363;27;20221;-82
2024/04/14 03:16:29;;;;;;;5.47;3.40;;;;;;;;;;5293842;27;20253;-81
2024/04/14 03:19:34;;;;;;;7.10;3.00;;;;;;;;;;5294164;27;20225;-81
2024/04/14 03:22:39;;;;;;;7.77;3.27;;;;;;;;;;5313613;27;20225;-81
2024/04/14 03:25:43;;;;;;;6.10;3.00;;;;;;;;;;5294215;27;20253;-81
2024/04/14 03:28:48;;;;;;;5.43;3.07;;;;;;;;;;5293731;27;20265;-82
2024/04/14 03:31:52;;;;;;;7.47;3.20;;;;;;;;;;5274911;27;20269;-81
2024/04/14 03:34:57;;;;;;;5.87;3.60;;;;;;;;;;5275024;27;20303;-81
2024/04/14 03:38:02;;;;;;;8.17;2.77;;;;;;;;;;5354512;21;20666;-83
2024/04/14 03:41:09;;;;;;;9.80;3.17;;;;;;;;;;5312862;27;20222;-83
2024/04/14 03:44:22;;;;;;;4.33;3.30;;;;;;;;;;5312630;27;20276;-82
2024/04/14 03:48:02;;;;;;;3.77;2.73;;;;;;;;;;5312819;27;20277;-83
2024/04/14 03:51:59;;;;;;;5.70;3.33;;;;;;;;;;5309322;27;20878;-83
2024/04/14 03:55:35;;;;;;;10.07;3.43;;;;;;;;;;5293140;27;20222;-82
2024/04/14 03:59:12;;;;;;;8.50;3.00;;;;;;;;;;5312777;27;20283;-82
2024/04/14 04:02:42;;;;;;;5.20;3.33;;;;;;;;;;5280263;27;20726;-83
2024/04/14 04:05:56;;;;;;;8.97;3.50;;;;;;;;;;5292738;27;20225;-83
2024/04/14 04:09:30;;;;;;;9.63;4.37;;;;;;;;;;5301333;27;20221;-83
2024/04/14 04:12:36;;;;;;;8.00;3.57;;;;;;;;;;5296113;27;20221;-83
2024/04/14 04:16:04;;;;;;;6.40;3.20;;;;;;;;;;5317084;27;20226;-83
2024/04/14 04:19:13;;;;;;;8.10;3.50;;;;;;;;;;5295923;27;20281;-83
2024/04/14 04:23:08;;;;;;;6.93;3.80;;;;;;;;;;5316198;27;20242;-83
2024/04/14 04:26:18;;;;;;;5.07;3.70;;;;;;;;;;5276729;27;20229;-83
2024/04/14 04:29:36;;;;;;;7.40;3.47;;;;;;;;;;5296278;27;20230;-82
2024/04/14 04:32:45;;;;;;;6.10;3.60;;;;;;;;;;5315260;27;20226;-82
2024/04/14 04:35:56;;;;;;;5.43;3.50;;;;;;;;;;5261807;27;20719;-83
2024/04/14 04:39:29;;;;;;;3.40;2.87;;;;;;;;;;5316771;27;20281;-82
2024/04/14 04:46:33;;;;;;;7.13;4.00;;;;;;;;;;5315809;27;20204;-83
2024/04/14 04:49:40;;;;;;;6.37;3.87;;;;;;;;;;5276426;27;20222;-82
2024/04/14 04:52:44;;;;;;;7.50;4.00;;;;;;;;;;5276258;27;20225;-83
2024/04/14 04:55:48;;;;;;;6.87;3.67;;;;;;;;;;5318284;27;20281;-83
2024/04/14 04:58:53;;;;;;;10.70;4.03;;;;;;;;;;5281423;27;20273;-84
2024/04/14 05:01:57;;;;;;;5.23;3.70;;;;;;;;;;5302077;27;20261;-84
2024/04/14 05:05:02;;;;;;;6.77;3.60;;;;;;;;;;5302622;27;20221;-83
2024/04/14 05:08:07;;;;;;;9.67;3.83;;;;;;;;;;5321847;27;20285;-84
2024/04/14 05:11:11;;;;;;;5.67;3.90;;;;;;;;;;5322506;27;20218;-84
2024/04/14 05:14:15;;;;;;;7.77;3.70;;;;;;;;;;5283991;27;20593;-85
2024/04/14 05:17:19;;;;;;;5.40;2.57;;;;;;;;;;5287598;21;20636;-78
2024/04/14 05:20:24;;;;;;;5.23;2.70;;;;;;;;;;5318548;27;20291;-78
2024/04/14 05:23:28;;;;;;;5.67;2.83;;;;;;;;;;5318240;27;20242;-78
2024/04/14 05:26:34;;;;;;;4.07;2.60;;;;;;;;;;5318610;27;20268;-78
2024/04/14 05:29:38;;;;;;;3.93;2.93;;;;;;;;;;5298872;27;20217;-78
2024/04/14 05:32:42;;;;;;;4.03;3.13;;;;;;;;;;5319955;27;20229;-78
2024/04/14 05:35:57;;;;;;;6.70;3.40;;;;;;;;;;5319054;27;20225;-79
2024/04/14 05:39:01;;;;;;;4.37;3.00;;;;;;;;;;5320339;27;20740;-79
2024/04/14 05:42:05;;;;;;;7.40;3.20;;;;;;;;;;5317624;27;20775;-78
2024/04/14 05:45:10;;;;;;;5.00;3.50;;;;;;;;;;5318664;27;20276;-79
2024/04/14 05:48:15;;;;;;;4.77;3.37;;;;;;;;;;5317529;27;20597;-79
2024/04/14 05:51:19;;;;;;;8.53;3.50;;;;;;;;;;5317378;27;20292;-81
2024/04/14 05:54:23;;;;;;;6.53;3.93;;;;;;;;;;5322296;27;20283;-80
2024/04/14 05:57:28;;;;;;;14.67;8.70;;;;;;;;;;5316321;27;20288;-81
2024/04/14 06:00:35;;;;;;;20.37;8.77;;;;;;;;;;5275977;27;20612;-80
2024/04/14 06:03:39;;;;;;;12.17;6.30;;;;;;;;;;5275815;27;20233;-80
2024/04/14 06:06:44;;;;;;;6.50;3.93;;;;;;;;;;5315447;27;20224;-81
2024/04/14 06:09:48;;;;;;;5.87;3.50;;;;;;;;;;5315116;27;20787;-81
2024/04/14 06:12:52;;;;;;;7.23;3.53;;;;;;;;;;5295461;27;20280;-81
2024/04/14 06:15:58;;;;;;;12.67;3.60;;;;;;;;;;5275664;27;20273;-81
2024/04/14 06:19:02;;;;;;;6.20;3.90;;;;;;;;;;5314517;27;20300;-81
2024/04/14 06:22:07;;;;;;;10.80;5.57;;;;;;;;;;5313888;27;20294;-81
2024/04/14 06:25:11;;;;;;;7.23;5.13;;;;;;;;;;5313257;27;20269;-81
2024/04/14 06:28:16;;;;;;;6.23;4.07;;;;;;;;;;5313630;27;20214;-81
2024/04/14 06:31:20;;;;;;;5.40;3.50;;;;;;;;;;5273160;27;20390;-81
2024/04/14 06:34:24;;;;;;;7.47;3.07;;;;;;;;;;5294456;27;20225;-81
2024/04/14 06:37:29;;;;;;;5.83;3.23;;;;;;;;;;5294447;27;20225;-82
2024/04/14 06:40:33;;;;;;;8.23;3.20;;;;;;;;;;5313726;27;20307;-81
2024/04/14 06:43:37;;;;;;;5.50;2.97;;;;;;;;;;5294192;27;20218;-81
2024/04/14 06:46:41;;;;;;;5.60;2.83;;;;;;;;;;5275073;27;20708;-80
2024/04/14 06:49:46;;;;;;;4.83;2.90;;;;;;;;;;5294195;27;20226;-81
2024/04/14 06:52:50;;;;;;;6.17;3.63;;;;;;;;;;5294090;27;20225;-81
2024/04/14 06:55:58;;;;;;;6.50;4.00;;;;;;;;;;5313498;27;20273;-80
2024/04/14 06:59:03;;;;;;;6.70;3.90;;;;;;;;;;5274652;27;20233;-81
2024/04/14 07:02:07;;;;;;;6.43;3.47;;;;;;;;;;5274392;27;20640;-81
2024/04/14 07:05:11;;;;;;;6.80;3.10;;;;;;;;;;5274472;27;20225;-81
2024/04/14 07:08:15;;;;;;;7.60;3.43;;;;;;;;;;5313705;27;20221;-81
2024/04/14 07:11:20;;;;;;;4.77;3.40;;;;;;;;;;5293876;27;20273;-81
2024/04/14 07:14:24;;;;;;;5.70;3.10;;;;;;;;;;5274976;27;20232;-81
2024/04/14 07:17:29;;;;;;;6.70;3.13;;;;;;;;;;5274070;27;20269;-81
2024/04/14 07:20:36;;;;;;;4.87;2.80;;;;;;;;;;5293110;27;20332;-81
2024/04/14 07:23:40;;;;;;;3.90;2.63;;;;;;;;;;5294154;27;20708;-80
2024/04/14 07:26:45;;;;;;;5.60;2.80;;;;;;;;;;5293176;27;20569;-81
2024/04/14 07:29:49;;;;;;;4.43;3.10;;;;;;;;;;5293491;27;20261;-82
2024/04/14 07:32:54;;;;;;;6.03;2.93;;;;;;;;;;5274283;27;20226;-81
2024/04/14 07:35:58;;;;;;;6.10;2.70;;;;;;;;;;5301238;27;20207;-81
2024/04/14 07:39:03;;;;;;;3.80;2.73;;;;;;;;;;5301773;27;20690;-80
2024/04/14 07:42:08;;;;;;;5.97;3.93;;;;;;;;;;5300126;27;20268;-81
2024/04/14 07:45:12;;;;;;;4.77;3.00;;;;;;;;;;5301302;27;20566;-82
2024/04/14 07:48:16;;;;;;;7.03;2.60;;;;;;;;;;5281014;27;20213;-81
2024/04/14 07:51:21;;;;;;;5.93;2.73;;;;;;;;;;5300054;27;20280;-82
2024/04/14 07:54:25;;;;;;;5.43;2.20;;;;;;;;;;5280664;27;20811;-83
2024/04/14 07:57:29;;;;;;;3.03;1.93;;;;;;;;;;5300239;27;20261;-82
2024/04/14 08:00:34;;;;;;;5.73;2.50;;;;;;;;;;5280637;27;20284;-84
2024/04/14 08:03:38;;;;;;;8.37;2.20;;;;;;;;;;5280908;27;20218;-84
2024/04/14 08:06:43;;;;;;;5.87;2.07;;;;;;;;;;5299191;27;20235;-82
2024/04/14 08:09:47;;;;;;;4.93;2.03;;;;;;;;;;5297395;27;20281;-82
2024/04/14 08:12:51;;;;;;;3.23;2.00;;;;;;;;;;5298527;27;20228;-82
2024/04/14 08:15:56;;;;;;;2.87;2.00;;;;;;;;;;5278842;27;20722;-83
2024/04/14 08:19:00;;;;;;;3.47;2.10;;;;;;;;;;5317192;27;20278;-83
2024/04/14 08:22:05;;;;;;;7.47;1.97;;;;;;;;;;5298589;27;20808;-82
2024/04/14 08:25:10;;;;;;;2.37;1.70;;;;;;;;;;5318640;27;20222;-82
2024/04/14 08:28:14;;;;;;;4.53;2.13;;;;;;;;;;5298643;27;20221;-83
2024/04/14 08:31:19;;;;;;;3.30;1.80;;;;;;;;;;5318936;27;20286;-83
2024/04/14 08:34:23;;;;;;;5.77;2.57;;;;;;;;;;5319939;27;20221;-83
2024/04/14 08:37:27;;;;;;;7.60;3.40;;;;;;;;;;5318494;27;20232;-83
2024/04/14 08:40:32;;;;;;;6.17;2.03;;;;;;;;;;5318839;27;20716;-83
2024/04/14 08:43:36;;;;;;;3.83;2.03;;;;;;;;;;5278166;27;20228;-82
2024/04/14 08:46:43;;;;;;;3.80;1.90;;;;;;;;;;5318205;27;20236;-83
2024/04/14 08:49:49;;;;;;;4.63;1.80;;;;;;;;;;5297199;27;20231;-82
2024/04/14 08:52:54;;;;;;;3.53;1.73;;;;;;;;;;5297828;27;20233;-83
2024/04/14 08:55:59;;;;;;;5.25;1.90;;;;;;;;;;5316504;27;20222;-82
2024/04/14 08:59:07;;;;;;;4.95;1.70;;;;;;;;;;5317566;27;20230;-83
2024/04/14 09:02:11;;;;;;;3.92;1.92;;;;;;;;;;5297467;27;20282;-82
2024/04/14 09:05:16;;;;;;;2.95;1.77;;;;;;;;;;5316731;27;20295;-82
2024/04/14 09:08:20;;;;;;;5.25;1.90;;;;;;;;;;5276689;27;20273;-81
2024/04/14 09:11:25;;;;;;;3.42;2.95;;;;;;;;;;5297453;27;20305;-80
2024/04/14 09:14:29;;;;;;;7.65;2.45;;;;;;;;;;5297238;27;20290;-81
2024/04/14 09:17:35;;;;;;;5.00;1.70;;;;;;;;;;5315544;27;20301;-81
2024/04/14 09:20:40;;;;;;;4.32;1.65;;;;;;;;;;5316150;27;20302;-82
2024/04/14 09:23:43;;;;;;;3.05;1.88;;;;;;;;;;5316975;27;20283;-81
2024/04/14 09:26:48;;;;;;;3.67;1.92;;;;;;;;;;5297262;27;20290;-82
2024/04/14 09:29:53;;;;;;;5.65;2.40;;;;;;;;;;5277530;27;20287;-82
2024/04/14 09:32:59;;;;;;;3.25;1.48;;;;;;;;;;5295322;27;20285;-81
2024/04/14 09:36:04;;;;;;;2.95;1.58;;;;;;;;;;5315992;27;20286;-80
2024/04/14 09:39:08;;;;;;;5.35;1.80;;;;;;;;;;5316637;27;20281;-81
2024/04/14 09:42:13;;;;;;;4.65;1.83;;;;;;;;;;5276094;27;20304;-81
2024/04/14 09:45:18;;;;;;;2.72;1.70;;;;;;;;;;5300350;21;20331;-79
2024/04/14 09:48:25;;;;;;;4.20;1.67;;;;;;;;;;5295570;27;20286;-78
2024/04/14 09:51:29;;;;;;;3.53;1.65;;;;;;;;;;5314987;27;20824;-79
2024/04/14 09:54:37;;;;;;;7.03;1.83;;;;;;;;;;5295771;27;20306;-78
2024/04/14 09:57:41;;;;;;;6.10;1.80;;;;;;;;;;5335002;26;20287;-79
2024/04/14 10:00:45;;;;;;;4.00;1.98;;;;;;;;;;5316260;27;20646;-78
2024/04/14 10:03:55;;;;;;;6.28;1.65;;;;;;;;;;5316834;27;20296;-79
2024/04/14 10:07:01;;;;;;;7.68;3.58;;;;;;;;;;5294950;27;20636;-78
2024/04/14 10:10:10;;;;;;;32.13;20.40;;;;;;;;;;5294689;27;20357;-78
2024/04/14 10:13:14;;;;;;;57.55;46.88;;;;;;;;;;5315864;27;20538;-78
2024/04/14 10:16:21;;;;;;;4.85;2.95;;;;;;;;;;5315140;27;20272;-79
2024/04/14 10:19:25;;;;;;;12.63;8.15;;;;;;;;;;5314912;27;20291;-79
2024/04/14 10:22:37;;;;;;;4.65;2.10;;;;;;;;;;5313450;27;20570;-77
2024/04/14 10:25:52;;;;;;;14.98;9.80;;;;;;;;;;5274998;27;20283;-78
2024/04/14 10:28:57;;;;;;;231.18;176.73;;;;;;;;;;5313999;27;20323;-77
2024/04/14 10:32:02;;;;;;;18.05;11.10;;;;;;;;;;5312588;27;20299;-77
2024/04/14 10:35:16;;;;;;;703.35;556.92;;;;;;;;;;5315801;27;20284;-78
2024/04/14 10:38:20;;;;;;;353.77;298.65;;;;;;;;;;5314794;27;20273;-79
2024/04/14 10:41:25;;;;;;;28.95;21.90;;;;;;;;;;5314474;27;20277;-78
2024/04/14 10:44:29;;;;;;;2.88;1.77;;;;;;;;;;5313936;27;20301;-77
2024/04/14 10:47:34;;;;;;;2.58;1.60;;;;;;;;;;5313954;27;20280;-78
2024/04/14 10:50:39;;;;;;;2.95;1.65;;;;;;;;;;5301741;27;20285;-78
2024/04/14 10:53:44;;;;;;;6.10;1.60;;;;;;;;;;5311270;27;20296;-78
2024/04/14 10:56:49;;;;;;;6.05;2.13;;;;;;;;;;5293384;27;20277;-79
2024/04/14 10:59:53;;;;;;;2.50;1.83;;;;;;;;;;5293978;27;20273;-78
2024/04/14 11:02:58;;;;;;;2.67;1.55;;;;;;;;;;5314359;27;20289;-78
2024/04/14 11:06:03;;;;;;;4.28;3.20;;;;;;;;;;5314765;27;20288;-79
2024/04/14 11:09:08;;;;;;;5.25;2.80;;;;;;;;;;5333641;26;20631;-78
2024/04/14 11:12:13;;;;;;;3.45;1.92;;;;;;;;;;5314321;27;20296;-78
2024/04/14 11:15:18;;;;;;;4.93;1.65;;;;;;;;;;5333117;26;20280;-77
2024/04/14 11:18:26;;;;;;;2.60;1.60;;;;;;;;;;5293959;27;20288;-77
2024/04/14 11:21:30;;;;;;;3.53;1.60;;;;;;;;;;5314275;27;20308;-78
2024/04/14 11:24:35;;;;;;;3.90;1.45;;;;;;;;;;5313950;27;20283;-77
2024/04/14 11:27:39;;;;;;;2.03;1.35;;;;;;;;;;5313623;27;20294;-77
2024/04/14 11:30:46;;;;;;;3.17;1.50;;;;;;;;;;5314013;27;20656;-78
2024/04/14 11:33:55;;;;;;;3.97;2.20;;;;;;;;;;5315055;27;20271;-78
2024/04/14 11:36:59;;;;;;;9.07;2.20;;;;;;;;;;5313466;27;20773;-78
2024/04/14 11:40:06;;;;;;;2.38;1.40;;;;;;;;;;5334087;26;20767;-77
2024/04/14 11:43:10;;;;;;;2.92;1.60;;;;;;;;;;5313331;27;20282;-77
2024/04/14 11:46:16;;;;;;;6.18;1.60;;;;;;;;;;5315403;27;20292;-78
2024/04/14 11:49:20;;;;;;;3.95;1.50;;;;;;;;;;5315084;27;20279;-78
2024/04/14 11:52:24;;;;;;;3.58;1.50;;;;;;;;;;5315508;27;20291;-77
2024/04/14 11:55:29;;;;;;;2.85;1.40;;;;;;;;;;5314279;27;20280;-77
2024/04/14 11:58:33;;;;;;;1.90;1.30;;;;;;;;;;5314955;27;20295;-77
2024/04/14 12:01:38;;;;;;;2.05;1.50;;;;;;;;;;5315131;27;20643;-77
2024/04/14 12:04:41;;;;;;;3.97;1.33;;;;;;;;;;5314074;27;20627;-78
2024/04/14 12:07:46;;;;;;;2.35;1.20;;;;;;;;;;5314141;27;20283;-78
2024/04/14 12:10:49;;;;;;;2.80;1.60;;;;;;;;;;5315139;27;20289;-78
2024/04/14 12:13:53;;;;;;;3.03;1.60;;;;;;;;;;5313931;27;20614;-78
2024/04/14 12:16:59;;;;;;;6.30;1.73;;;;;;;;;;5312218;27;20770;-77
2024/04/14 12:20:04;;;;;;;3.47;2.25;;;;;;;;;;5312978;27;20283;-77
2024/04/14 12:23:09;;;;;;;3.08;1.80;;;;;;;;;;5331583;26;20292;-78
2024/04/14 12:26:15;;;;;;;4.38;1.90;;;;;;;;;;5311475;27;20365;-77
2024/04/14 12:29:19;;;;;;;4.05;3.03;;;;;;;;;;5312712;27;20790;-76
2024/04/14 12:32:23;;;;;;;1.88;1.50;;;;;;;;;;5334674;26;20651;-77
2024/04/14 12:35:28;;;;;;;6.30;1.38;;;;;;;;;;5314651;27;20297;-76
2024/04/14 12:38:32;;;;;;;4.13;2.20;;;;;;;;;;5314717;27;20283;-77
2024/04/14 12:41:36;;;;;;;3.15;1.98;;;;;;;;;;5316226;27;20306;-77
2024/04/14 12:44:40;;;;;;;7.68;1.80;;;;;;;;;;5317356;27;20319;-77
2024/04/14 12:47:45;;;;;;;4.63;1.52;;;;;;;;;;5316449;27;20283;-77
2024/04/14 12:50:52;;;;;;;2.22;1.75;;;;;;;;;;5335635;26;20300;-77
2024/04/14 12:53:57;;;;;;;4.20;1.80;;;;;;;;;;5296422;27;20287;-77
2024/04/14 12:57:01;;;;;;;1.80;1.48;;;;;;;;;;5315057;27;20283;-77
2024/04/14 13:00:06;;;;;;;3.83;1.85;;;;;;;;;;5314614;27;20283;-77
2024/04/14 13:03:14;;;;;;;1.88;1.50;;;;;;;;;;5315325;27;20284;-77
2024/04/14 13:06:18;;;;;;;2.75;1.30;;;;;;;;;;5295866;27;20287;-77
2024/04/14 13:09:23;;;;;;;2.33;1.65;;;;;;;;;;5316315;26;20297;-77
2024/04/14 13:12:27;;;;;;;1.50;1.40;;;;;;;;;;5295909;27;20799;-77
2024/04/14 13:15:32;;;;;;;1.98;1.58;;;;;;;;;;5279544;27;20299;-77
2024/04/14 13:18:37;;;;;;;2.83;1.38;;;;;;;;;;5296384;27;20294;-76
2024/04/14 13:21:42;;;;;;;5.38;1.40;;;;;;;;;;5299296;27;20322;-77
2024/04/14 13:24:46;;;;;;;5.35;1.33;;;;;;;;;;5276166;27;20304;-77
2024/04/14 13:27:51;;;;;;;4.60;1.60;;;;;;;;;;5297681;27;20298;-77
2024/04/14 13:30:57;;;;;;;3.92;2.72;;;;;;;;;;5299721;27;20312;-77
2024/04/14 13:34:01;;;;;;;3.13;1.60;;;;;;;;;;5295111;27;20297;-77
2024/04/14 13:37:06;;;;;;;2.40;1.42;;;;;;;;;;5281481;27;20301;-77
2024/04/14 13:40:11;;;;;;;2.35;1.40;;;;;;;;;;5296569;27;20290;-77
2024/04/14 13:43:15;;;;;;;7.22;1.27;;;;;;;;;;5299653;27;20302;-77
2024/04/14 13:46:20;;;;;;;5.32;1.58;;;;;;;;;;5296970;27;20303;-77
2024/04/14 13:49:24;;;;;;;6.40;1.50;;;;;;;;;;5299602;27;20672;-77
2024/04/14 13:52:29;;;;;;;4.72;1.60;;;;;;;;;;5315791;26;20300;-77
2024/04/14 13:55:34;;;;;;;2.83;1.40;;;;;;;;;;5296239;27;20303;-76
2024/04/14 13:58:38;;;;;;;3.45;1.63;;;;;;;;;;5295898;27;20640;-78
2024/04/14 14:01:42;;;;;;;3.60;1.40;;;;;;;;;;5318359;26;20297;-77
2024/04/14 14:04:47;;;;;;;2.90;1.27;;;;;;;;;;5280287;27;20297;-77
2024/04/14 14:07:53;;;;;;;1.95;1.40;;;;;;;;;;5297141;27;20302;-77
2024/04/14 14:10:57;;;;;;;5.22;1.40;;;;;;;;;;5298986;27;20280;-77
2024/04/14 14:14:02;;;;;;;7.45;1.50;;;;;;;;;;5315678;26;20312;-77
2024/04/14 14:17:07;;;;;;;2.75;1.50;;;;;;;;;;5304141;27;20300;-77
2024/04/14 14:20:11;;;;;;;4.57;1.70;;;;;;;;;;5311471;27;20638;-77
2024/04/14 14:23:15;;;;;;;6.10;1.95;;;;;;;;;;5319648;27;20290;-77
2024/04/14 14:26:21;;;;;;;5.78;1.90;;;;;;;;;;5318414;27;20303;-77
2024/04/14 14:29:25;;;;;;;2.65;1.58;;;;;;;;;;5294131;27;20296;-76
2024/04/14 14:32:31;;;;;;;1.52;1.27;;;;;;;;;;5296487;27;20321;-77
2024/04/14 14:39:01;;;;;;;3.58;1.50;;;;;;;;;;5300082;27;20291;-78
2024/04/14 14:42:09;;;;;;;4.03;1.55;;;;;;;;;;5304074;27;20312;-79
2024/04/14 14:45:13;;;;;;;4.38;1.80;;;;;;;;;;5313520;27;20306;-79
2024/04/14 14:48:18;;;;;;;4.97;1.75;;;;;;;;;;5304359;27;20300;-78
2024/04/14 14:51:22;;;;;;;2.10;1.52;;;;;;;;;;5303207;27;20297;-78
2024/04/14 14:54:26;;;;;;;1.90;1.70;;;;;;;;;;5300544;27;20812;-77
2024/04/14 14:57:30;;;;;;;5.45;1.70;;;;;;;;;;5298212;27;20647;-77
2024/04/14 15:00:35;;;;;;;2.10;1.63;;;;;;;;;;5298076;27;20293;-77
2024/04/14 15:03:40;;;;;;;2.42;1.35;;;;;;;;;;5293160;27;20648;-77
2024/04/14 15:06:44;;;;;;;2.75;1.48;;;;;;;;;;5296717;27;20292;-77
2024/04/14 15:10:07;;;;;;;3.35;2.60;;;;;;;;;;5293909;27;20292;-77
2024/04/14 15:13:12;;;;;;;5.35;2.30;;;;;;;;;;5248559;27;20289;-77
2024/04/14 15:16:18;;;;;;;6.93;2.78;;;;;;;;;;5295348;27;20353;-77
2024/04/14 15:19:22;;;;;;;3.28;1.70;;;;;;;;;;5294584;27;20277;-77
2024/04/14 15:22:28;;;;;;;2.53;1.90;;;;;;;;;;5293000;27;20822;-76
2024/04/14 15:25:32;;;;;;;3.83;2.50;;;;;;;;;;5313523;27;20268;-77
2024/04/14 15:28:36;;;;;;;3.25;2.20;;;;;;;;;;5332376;26;20287;-77
2024/04/14 15:31:41;;;;;;;4.40;1.85;;;;;;;;;;5314426;27;20287;-78
2024/04/14 15:34:45;;;;;;;4.10;1.60;;;;;;;;;;5315062;27;20788;-78
2024/04/14 15:37:50;;;;;;;8.48;4.57;;;;;;;;;;5334885;26;20274;-77
2024/04/14 15:40:56;;;;;;;8.30;2.50;;;;;;;;;;5315590;27;20299;-78
2024/04/14 15:44:00;;;;;;;6.90;3.38;;;;;;;;;;5316526;27;20318;-77
2024/04/14 15:47:05;;;;;;;2.60;2.17;;;;;;;;;;5334982;26;20283;-77
2024/04/14 15:50:11;;;;;;;4.18;2.10;;;;;;;;;;5314550;27;20805;-77
2024/04/14 15:53:15;;;;;;;2.10;1.63;;;;;;;;;;5280741;27;20274;-77
2024/04/14 15:56:20;;;;;;;5.25;2.38;;;;;;;;;;5282129;27;20290;-78
2024/04/14 15:59:24;;;;;;;3.47;2.20;;;;;;;;;;5282544;27;20293;-77
2024/04/14 16:02:29;;;;;;;2.50;1.90;;;;;;;;;;5281265;27;20288;-78
2024/04/14 16:05:34;;;;;;;4.28;2.80;;;;;;;;;;5261219;27;20290;-79
2024/04/14 16:08:38;;;;;;;3.05;2.35;;;;;;;;;;5261563;27;20634;-79
2024/04/14 16:11:42;;;;;;;7.85;2.10;;;;;;;;;;5282062;27;20295;-80
2024/04/14 16:14:50;;;;;;;4.75;1.88;;;;;;;;;;5282713;27;20282;-79
2024/04/14 16:17:55;;;;;;;2.53;1.60;;;;;;;;;;5281630;27;20283;-79
2024/04/14 16:20:59;;;;;;;4.15;1.73;;;;;;;;;;5282783;27;20291;-78
2024/04/14 16:24:04;;;;;;;6.50;2.20;;;;;;;;;;5281582;27;20293;-77
2024/04/14 16:27:09;;;;;;;6.90;1.90;;;;;;;;;;5283181;27;20790;-77
2024/04/14 16:30:13;;;;;;;2.10;1.80;;;;;;;;;;5282845;27;20625;-78
2024/04/14 16:33:17;;;;;;;4.83;2.07;;;;;;;;;;5283281;27;20294;-78
2024/04/14 16:36:22;;;;;;;3.70;2.00;;;;;;;;;;5283039;27;20285;-77
2024/04/14 16:39:26;;;;;;;2.10;1.50;;;;;;;;;;5280934;27;20285;-77
2024/04/14 16:42:31;;;;;;;3.40;1.97;;;;;;;;;;5279569;27;20315;-77
2024/04/14 16:45:35;;;;;;;4.00;2.20;;;;;;;;;;5279455;27;20282;-77
2024/04/14 16:48:39;;;;;;;4.03;1.80;;;;;;;;;;5280171;27;20289;-77
2024/04/14 16:51:44;;;;;;;5.17;2.10;;;;;;;;;;5279724;27;20304;-77
2024/04/14 16:54:47;;;;;;;5.03;1.70;;;;;;;;;;5280717;27;20282;-77
2024/04/14 16:57:52;;;;;;;3.07;2.07;;;;;;;;;;5280828;27;20278;-77
2024/04/14 17:00:56;;;;;;;7.03;2.23;;;;;;;;;;5279846;27;20300;-78
2024/04/14 17:04:01;;;;;;;4.97;1.93;;;;;;;;;;5281289;27;20285;-78
2024/04/14 17:07:06;;;;;;;6.73;2.07;;;;;;;;;;5279896;27;20278;-77
2024/04/14 17:10:10;;;;;;;9.70;2.20;;;;;;;;;;5287407;27;20794;-77
2024/04/14 17:13:18;;;;;;;6.77;2.43;;;;;;;;;;5302214;27;20293;-78
2024/04/14 17:16:22;;;;;;;6.07;2.00;;;;;;;;;;5297286;27;20666;-79
2024/04/14 17:19:26;;;;;;;3.77;2.30;;;;;;;;;;5277661;27;20287;-77
2024/04/14 17:22:31;;;;;;;3.43;2.00;;;;;;;;;;5296336;27;20321;-77
2024/04/14 17:25:36;;;;;;;2.43;2.20;;;;;;;;;;5303500;27;20290;-77
2024/04/14 17:28:40;;;;;;;3.17;2.03;;;;;;;;;;5314353;27;20633;-77
2024/04/14 17:31:44;;;;;;;5.70;1.97;;;;;;;;;;5313452;27;20312;-77
2024/04/14 17:34:48;;;;;;;3.40;2.20;;;;;;;;;;5313351;27;20281;-77
2024/04/14 17:37:53;;;;;;;2.30;2.10;;;;;;;;;;5314316;27;20635;-77
2024/04/14 17:40:58;;;;;;;3.07;1.90;;;;;;;;;;5333190;26;20603;-77
2024/04/14 17:44:02;;;;;;;3.50;1.90;;;;;;;;;;5313801;27;20311;-77
2024/04/14 17:47:07;;;;;;;3.50;1.90;;;;;;;;;;5314335;27;20285;-77
2024/04/14 17:50:11;;;;;;;3.03;2.13;;;;;;;;;;5313328;27;20275;-77
2024/04/14 17:53:15;;;;;;;3.53;1.63;;;;;;;;;;5314523;27;20285;-77
2024/04/14 17:56:19;;;;;;;3.63;1.83;;;;;;;;;;5314208;27;20282;-77
2024/04/14 17:59:24;;;;;;;4.40;2.10;;;;;;;;;;5332858;26;20696;-77
2024/04/14 18:02:28;;;;;;;2.30;1.73;;;;;;;;;;5332717;26;20820;-77
2024/04/14 18:05:33;;;;;;;3.70;1.90;;;;;;;;;;5314261;27;20273;-77
2024/04/14 18:08:37;;;;;;;9.20;2.27;;;;;;;;;;5335308;26;20628;-79
2024/04/14 18:11:41;;;;;;;34.73;4.47;;;;;;;;;;5315690;27;20304;-79
2024/04/14 18:14:46;;;;;;;27.20;2.93;;;;;;;;;;5295771;27;20284;-78
2024/04/14 18:17:50;;;;;;;22.43;2.87;;;;;;;;;;5315754;27;20280;-78
2024/04/14 18:20:55;;;;;;;10.07;2.50;;;;;;;;;;5315411;27;20320;-78
2024/04/14 18:23:59;;;;;;;6.90;2.20;;;;;;;;;;5316233;27;20620;-79
2024/04/14 18:27:06;;;;;;;8.23;2.17;;;;;;;;;;5334842;26;20273;-79
2024/04/14 18:30:11;;;;;;;6.70;2.13;;;;;;;;;;5315339;27;20632;-80
2024/04/14 18:33:15;;;;;;;6.13;2.20;;;;;;;;;;5315669;27;20284;-77
2024/04/14 18:36:20;;;;;;;2.93;1.90;;;;;;;;;;5335760;26;20277;-78
2024/04/14 18:39:24;;;;;;;2.27;1.87;;;;;;;;;;5315458;27;20272;-77
2024/04/14 18:42:28;;;;;;;5.33;2.40;;;;;;;;;;5317065;27;20297;-79